Time;durP1;ratioP1;P1;durP2;ratioP2;P2;SDS_P1;SDS_P2;PMS_P1;PMS_P2;Temp;Humidity;BMP_temperature;BMP_pressure;BME280_temperature;BME280_humidity;BME280_pressure;Samples;Min_cycle;Max_cycle;Signal;HPM_P1;HPM_P2
2022/05/23 00:01:05;;;;;;;4.47;2.28;;;;;;;;;;5042491;28;20364;-69
2022/05/23 00:03:31;;;;;;;6.75;2.28;;;;;;;;;;5039010;28;20185;-69
2022/05/23 00:05:57;;;;;;;6.75;2.38;;;;;;;;;;5033297;28;20208;-69
2022/05/23 00:08:25;;;;;;;5.18;1.83;;;;;;;;;;5038084;28;20685;-69
2022/05/23 00:10:50;;;;;;;6.00;1.90;;;;;;;;;;5047181;28;20217;-69
2022/05/23 00:13:16;;;;;;;4.95;1.88;;;;;;;;;;5044101;28;20196;-69
2022/05/23 00:15:41;;;;;;;5.97;2.03;;;;;;;;;;5041723;28;20633;-69
2022/05/23 00:18:07;;;;;;;5.43;2.35;;;;;;;;;;5037267;28;20654;-68
2022/05/23 00:20:32;;;;;;;4.05;2.30;;;;;;;;;;5033152;28;20182;-69
2022/05/23 00:22:57;;;;;;;5.45;1.95;;;;;;;;;;5044229;28;20664;-69
2022/05/23 00:25:23;;;;;;;6.72;2.08;;;;;;;;;;5046577;28;20181;-69
2022/05/23 00:27:49;;;;;;;4.55;1.83;;;;;;;;;;5046290;28;20217;-70
2022/05/23 00:30:20;;;;;;;3.15;1.98;;;;;;;;;;5040854;28;20267;-70
2022/05/23 00:35:29;;;;;;;6.30;2.20;;;;;;;;;;5032277;28;20730;-68
2022/05/23 00:37:56;;;;;;;3.72;2.00;;;;;;;;;;5029598;28;20265;-69
2022/05/23 00:43:13;;;;;;;6.68;2.00;;;;;;;;;;5045944;28;21426;-70
2022/05/23 00:43:38;;;;;;;6.57;2.05;;;;;;;;;;5036313;28;20221;-69
2022/05/23 00:46:07;;;;;;;5.57;2.30;;;;;;;;;;5029713;28;20178;-69
2022/05/23 00:48:33;;;;;;;5.13;2.22;;;;;;;;;;5030577;28;20209;-69
2022/05/23 00:51:01;;;;;;;3.38;1.80;;;;;;;;;;5030495;28;20526;-69
2022/05/23 00:53:39;;;;;;;2.95;2.05;;;;;;;;;;5035231;28;20822;-69
2022/05/23 00:56:09;;;;;;;3.65;1.80;;;;;;;;;;5048088;28;20181;-69
2022/05/23 00:58:40;;;;;;;4.13;1.92;;;;;;;;;;5046436;28;20209;-69
2022/05/23 01:01:09;;;;;;;5.90;2.40;;;;;;;;;;5041346;28;20177;-70
2022/05/23 01:03:35;;;;;;;6.95;2.20;;;;;;;;;;5034837;28;20798;-69
2022/05/23 01:06:01;;;;;;;6.43;2.10;;;;;;;;;;5041858;28;20332;-69
2022/05/23 01:08:26;;;;;;;6.93;2.20;;;;;;;;;;5047207;28;20581;-69
2022/05/23 01:10:52;;;;;;;4.32;1.95;;;;;;;;;;5042092;28;20221;-69
2022/05/23 01:13:17;;;;;;;5.28;2.28;;;;;;;;;;5041769;28;20192;-69
2022/05/23 01:15:48;;;;;;;5.82;2.10;;;;;;;;;;5036180;28;20182;-68
2022/05/23 01:18:14;;;;;;;3.00;1.88;;;;;;;;;;5046236;28;20182;-68
2022/05/23 01:20:40;;;;;;;6.63;2.00;;;;;;;;;;5046324;28;20629;-69
2022/05/23 01:23:34;;;;;;;5.70;2.42;;;;;;;;;;5038072;28;20182;-68
2022/05/23 01:26:00;;;;;;;4.75;2.28;;;;;;;;;;5025818;28;20459;-69
2022/05/23 01:28:25;;;;;;;5.05;2.30;;;;;;;;;;5035883;28;20288;-69
2022/05/23 01:30:51;;;;;;;8.10;2.58;;;;;;;;;;5046392;28;20284;-69
2022/05/23 01:33:16;;;;;;;4.72;1.95;;;;;;;;;;5038704;28;20265;-69
2022/05/23 01:35:42;;;;;;;5.57;2.40;;;;;;;;;;5048007;28;20268;-70
2022/05/23 01:38:09;;;;;;;6.97;2.70;;;;;;;;;;5033802;28;20512;-69
2022/05/23 01:40:34;;;;;;;4.20;2.10;;;;;;;;;;5031525;28;20555;-70
2022/05/23 01:43:00;;;;;;;8.07;2.60;;;;;;;;;;5041858;28;20185;-70
2022/05/23 01:45:29;;;;;;;4.43;2.33;;;;;;;;;;5031463;28;20249;-69
2022/05/23 01:47:56;;;;;;;4.22;2.30;;;;;;;;;;5030205;28;20350;-69
2022/05/23 01:50:23;;;;;;;9.60;2.80;;;;;;;;;;5043674;28;20276;-69
2022/05/23 01:52:49;;;;;;;2.75;2.22;;;;;;;;;;5028347;28;20261;-70
2022/05/23 01:55:15;;;;;;;3.60;2.10;;;;;;;;;;5040239;28;20280;-69
2022/05/23 01:57:41;;;;;;;7.22;2.42;;;;;;;;;;5042235;28;20212;-69
2022/05/23 02:02:52;;;;;;;3.40;2.30;;;;;;;;;;5044891;28;20263;-69
2022/05/23 02:05:19;;;;;;;7.47;2.47;;;;;;;;;;5035506;28;20186;-69
2022/05/23 02:07:44;;;;;;;7.80;2.83;;;;;;;;;;5028596;28;20205;-69
2022/05/23 02:10:11;;;;;;;6.28;2.50;;;;;;;;;;5038855;28;20204;-69
2022/05/23 02:12:37;;;;;;;5.07;2.22;;;;;;;;;;5035504;28;20242;-69
2022/05/23 02:15:03;;;;;;;5.38;2.50;;;;;;;;;;5037320;28;20182;-69
2022/05/23 02:17:28;;;;;;;5.68;2.78;;;;;;;;;;5041333;28;20181;-69
2022/05/23 02:19:54;;;;;;;4.93;2.30;;;;;;;;;;5041155;28;20220;-69
2022/05/23 02:22:19;;;;;;;6.78;2.20;;;;;;;;;;5044256;28;20432;-69
2022/05/23 02:24:44;;;;;;;6.35;2.60;;;;;;;;;;5036534;28;20836;-69
2022/05/23 02:27:10;;;;;;;5.78;2.40;;;;;;;;;;5028088;28;20693;-69
2022/05/23 02:29:36;;;;;;;7.45;2.15;;;;;;;;;;5029894;28;20285;-69
2022/05/23 02:32:01;;;;;;;4.32;2.17;;;;;;;;;;5036354;28;20220;-69
2022/05/23 02:34:27;;;;;;;5.15;2.38;;;;;;;;;;5034686;28;20454;-69
2022/05/23 02:36:53;;;;;;;5.55;2.13;;;;;;;;;;5039057;28;20617;-69
2022/05/23 02:39:18;;;;;;;7.75;2.70;;;;;;;;;;5032646;28;20185;-69
2022/05/23 02:41:44;;;;;;;5.45;2.40;;;;;;;;;;5045492;28;20506;-69
2022/05/23 02:44:09;;;;;;;4.03;2.25;;;;;;;;;;5036693;28;20541;-69
2022/05/23 02:46:35;;;;;;;4.80;2.20;;;;;;;;;;5045736;28;20204;-69
2022/05/23 02:49:00;;;;;;;7.00;2.67;;;;;;;;;;5046388;28;20177;-69
2022/05/23 02:51:26;;;;;;;6.57;2.40;;;;;;;;;;5032172;28;20235;-69
2022/05/23 02:53:52;;;;;;;5.07;2.30;;;;;;;;;;5037617;28;20264;-69
2022/05/23 02:56:17;;;;;;;4.60;2.55;;;;;;;;;;5046105;28;20660;-69
2022/05/23 02:58:43;;;;;;;7.25;2.30;;;;;;;;;;5040700;28;20216;-69
2022/05/23 03:01:09;;;;;;;5.50;2.47;;;;;;;;;;5040906;28;20645;-69
2022/05/23 03:03:35;;;;;;;5.90;2.35;;;;;;;;;;5039853;28;20185;-69
2022/05/23 03:06:00;;;;;;;3.83;2.10;;;;;;;;;;5043012;28;20528;-68
2022/05/23 03:08:27;;;;;;;6.90;2.20;;;;;;;;;;5040568;28;20296;-68
2022/05/23 03:10:58;;;;;;;7.20;2.63;;;;;;;;;;5030061;28;20666;-69
2022/05/23 03:13:23;;;;;;;5.13;2.38;;;;;;;;;;5027633;28;20273;-68
2022/05/23 03:15:49;;;;;;;3.35;2.28;;;;;;;;;;5030027;28;20277;-68
2022/05/23 03:18:14;;;;;;;4.32;2.40;;;;;;;;;;5037067;28;20243;-69
2022/05/23 03:20:40;;;;;;;3.38;2.17;;;;;;;;;;5029020;28;20189;-69
2022/05/23 03:28:35;;;;;;;4.22;2.25;;;;;;;;;;5035319;28;20264;-69
2022/05/23 03:31:03;;;;;;;7.40;2.45;;;;;;;;;;5034062;28;20324;-69
2022/05/23 03:33:28;;;;;;;4.65;2.10;;;;;;;;;;5030373;28;20556;-71
2022/05/23 03:35:54;;;;;;;6.50;2.17;;;;;;;;;;5034250;28;20190;-70
2022/05/23 03:38:20;;;;;;;3.95;2.30;;;;;;;;;;5040776;28;20184;-69
2022/05/23 03:40:45;;;;;;;4.53;2.60;;;;;;;;;;5032721;28;20321;-70
2022/05/23 03:43:11;;;;;;;4.85;1.90;;;;;;;;;;5033844;28;20284;-70
2022/05/23 03:45:37;;;;;;;5.05;2.25;;;;;;;;;;5035414;28;20217;-70
2022/05/23 03:48:03;;;;;;;4.28;2.63;;;;;;;;;;5030548;28;20649;-71
2022/05/23 03:50:30;;;;;;;5.30;2.40;;;;;;;;;;5034306;28;20198;-69
2022/05/23 03:52:56;;;;;;;8.45;2.60;;;;;;;;;;5027978;28;20185;-70
2022/05/23 03:55:23;;;;;;;7.38;2.45;;;;;;;;;;5025662;28;20186;-70
2022/05/23 03:57:48;;;;;;;3.92;2.25;;;;;;;;;;5033975;28;20195;-70
2022/05/23 04:00:14;;;;;;;6.30;2.72;;;;;;;;;;5038260;28;20268;-70
2022/05/23 04:02:41;;;;;;;7.78;2.55;;;;;;;;;;5032911;28;20185;-70
2022/05/23 04:05:09;;;;;;;6.30;2.80;;;;;;;;;;5039934;28;20284;-70
2022/05/23 04:07:36;;;;;;;8.88;2.65;;;;;;;;;;5034322;28;20217;-69
2022/05/23 04:10:03;;;;;;;4.53;2.47;;;;;;;;;;5036084;28;20491;-69
2022/05/23 04:12:28;;;;;;;5.88;2.67;;;;;;;;;;5035507;28;20234;-69
2022/05/23 04:14:54;;;;;;;3.33;2.30;;;;;;;;;;5032442;28;20186;-69
2022/05/23 04:17:19;;;;;;;9.30;2.67;;;;;;;;;;5032958;28;20182;-69
2022/05/23 04:19:44;;;;;;;4.80;2.40;;;;;;;;;;5033895;28;20181;-69
2022/05/23 04:22:09;;;;;;;6.00;2.63;;;;;;;;;;5033365;28;20194;-69
2022/05/23 04:24:35;;;;;;;5.53;2.72;;;;;;;;;;5039750;28;20630;-69
2022/05/23 04:27:00;;;;;;;5.75;2.38;;;;;;;;;;5037435;28;20228;-69
2022/05/23 04:29:25;;;;;;;4.82;2.78;;;;;;;;;;5039852;28;20259;-69
2022/05/23 04:31:51;;;;;;;5.05;2.83;;;;;;;;;;5044057;28;20255;-69
2022/05/23 04:37:00;;;;;;;4.53;2.58;;;;;;;;;;5039063;28;20193;-69
2022/05/23 04:39:26;;;;;;;4.78;2.70;;;;;;;;;;5040248;28;20185;-69
2022/05/23 04:41:51;;;;;;;4.35;2.90;;;;;;;;;;5039300;28;20189;-69
2022/05/23 04:44:16;;;;;;;6.72;2.58;;;;;;;;;;5033405;28;20235;-69
2022/05/23 04:49:41;;;;;;;4.03;2.70;;;;;;;;;;5040428;28;20188;-70
2022/05/23 04:52:11;;;;;;;5.63;3.03;;;;;;;;;;5034670;28;20409;-70
2022/05/23 04:54:38;;;;;;;4.47;2.80;;;;;;;;;;5038446;28;20215;-70
2022/05/23 04:57:04;;;;;;;10.10;3.67;;;;;;;;;;5036143;28;20534;-71
2022/05/23 04:59:29;;;;;;;4.15;2.90;;;;;;;;;;5031619;28;20184;-69
2022/05/23 05:01:55;;;;;;;6.00;3.20;;;;;;;;;;5034208;28;20723;-69
2022/05/23 05:04:20;;;;;;;6.60;2.70;;;;;;;;;;5033516;28;20667;-69
2022/05/23 05:06:45;;;;;;;4.85;3.00;;;;;;;;;;5039595;28;20201;-70
2022/05/23 05:09:10;;;;;;;7.28;3.20;;;;;;;;;;5044008;28;20676;-70
2022/05/23 05:11:39;;;;;;;6.63;3.60;;;;;;;;;;5042852;28;20241;-70
2022/05/23 05:14:05;;;;;;;5.93;3.28;;;;;;;;;;5031691;28;20221;-70
2022/05/23 05:16:31;;;;;;;6.55;3.00;;;;;;;;;;5035285;28;20206;-70
2022/05/23 05:18:59;;;;;;;6.35;3.40;;;;;;;;;;5034859;28;20182;-70
2022/05/23 05:21:25;;;;;;;6.93;3.22;;;;;;;;;;5036565;28;20185;-70
2022/05/23 05:23:51;;;;;;;9.88;4.15;;;;;;;;;;5036661;28;20178;-70
2022/05/23 05:26:16;;;;;;;12.00;3.55;;;;;;;;;;5040468;28;20200;-70
2022/05/23 05:28:41;;;;;;;5.70;3.30;;;;;;;;;;5036825;28;20300;-71
2022/05/23 05:31:15;;;;;;;6.18;3.42;;;;;;;;;;5037696;28;20217;-70
2022/05/23 05:33:46;;;;;;;5.43;3.22;;;;;;;;;;5037008;28;20685;-69
2022/05/23 05:36:21;;;;;;;5.47;3.15;;;;;;;;;;5038571;28;20629;-69
2022/05/23 05:38:52;;;;;;;4.93;3.20;;;;;;;;;;5041496;28;20595;-69
2022/05/23 05:41:22;;;;;;;4.50;3.65;;;;;;;;;;5039998;28;20260;-71
2022/05/23 05:43:52;;;;;;;7.75;3.22;;;;;;;;;;5033935;28;20493;-70
2022/05/23 05:46:24;;;;;;;8.02;3.85;;;;;;;;;;5039264;28;20200;-70
2022/05/23 05:48:51;;;;;;;7.20;3.90;;;;;;;;;;5046516;28;20190;-70
2022/05/23 05:51:20;;;;;;;10.98;5.53;;;;;;;;;;5030376;28;20237;-69
2022/05/23 05:53:48;;;;;;;8.90;3.80;;;;;;;;;;5029425;28;20186;-70
2022/05/23 05:56:14;;;;;;;8.77;3.97;;;;;;;;;;5040029;28;20790;-69
2022/05/23 05:58:39;;;;;;;10.38;4.45;;;;;;;;;;5038379;28;20177;-69
2022/05/23 06:01:04;;;;;;;9.70;3.65;;;;;;;;;;5039282;28;20193;-69
2022/05/23 06:03:31;;;;;;;12.23;5.78;;;;;;;;;;5041454;28;20184;-68
2022/05/23 06:11:26;;;;;;;7.85;3.70;;;;;;;;;;5035006;28;20307;-68
2022/05/23 06:13:56;;;;;;;8.60;3.85;;;;;;;;;;5037056;28;20232;-70
2022/05/23 06:16:23;;;;;;;9.85;4.93;;;;;;;;;;5035730;28;20707;-70
2022/05/23 06:18:49;;;;;;;10.90;5.40;;;;;;;;;;5034849;28;20182;-69
2022/05/23 06:21:15;;;;;;;10.52;4.35;;;;;;;;;;5034569;28;20192;-69
2022/05/23 06:23:41;;;;;;;5.05;3.90;;;;;;;;;;5035432;28;20676;-69
2022/05/23 06:26:07;;;;;;;7.03;3.97;;;;;;;;;;5030415;28;20214;-71
2022/05/23 06:28:34;;;;;;;8.55;3.90;;;;;;;;;;5032404;28;20685;-70
2022/05/23 06:30:59;;;;;;;8.57;3.45;;;;;;;;;;5036118;28;20214;-71
2022/05/23 06:33:25;;;;;;;8.70;3.78;;;;;;;;;;5031104;28;20651;-69
2022/05/23 06:35:51;;;;;;;7.47;3.90;;;;;;;;;;5039091;28;20189;-69
2022/05/23 06:38:16;;;;;;;6.57;3.58;;;;;;;;;;5041433;28;20178;-69
2022/05/23 06:40:42;;;;;;;5.53;3.70;;;;;;;;;;5036204;28;20186;-70
2022/05/23 06:43:08;;;;;;;8.98;3.78;;;;;;;;;;5038473;28;20779;-70
2022/05/23 06:45:33;;;;;;;4.40;3.45;;;;;;;;;;5033370;28;20184;-70
2022/05/23 06:47:59;;;;;;;5.72;3.47;;;;;;;;;;5031883;28;20264;-70
2022/05/23 06:50:24;;;;;;;8.10;4.15;;;;;;;;;;5034372;28;20632;-69
2022/05/23 06:52:49;;;;;;;5.95;3.30;;;;;;;;;;5029162;28;20173;-71
2022/05/23 06:55:15;;;;;;;7.72;3.60;;;;;;;;;;5032619;28;20338;-69
2022/05/23 06:57:40;;;;;;;5.82;3.50;;;;;;;;;;5036022;28;20543;-69
2022/05/23 07:00:09;;;;;;;9.68;3.95;;;;;;;;;;5034575;28;20186;-69
2022/05/23 07:02:35;;;;;;;7.82;3.85;;;;;;;;;;5034521;28;20552;-68
2022/05/23 07:13:13;;;;;;;5.57;3.40;;;;;;;;;;5041943;28;20207;-68
2022/05/23 07:15:46;;;;;;;9.18;3.75;;;;;;;;;;5044656;28;20193;-68
2022/05/23 07:18:12;;;;;;;5.43;3.90;;;;;;;;;;5041863;28;20185;-68
2022/05/23 07:20:37;;;;;;;7.28;3.58;;;;;;;;;;5038833;28;20235;-69
2022/05/23 07:23:03;;;;;;;8.48;3.80;;;;;;;;;;5040797;28;20256;-66
2022/05/23 07:25:28;;;;;;;6.53;4.18;;;;;;;;;;5035040;28;20186;-69
2022/05/23 07:27:53;;;;;;;4.50;3.00;;;;;;;;;;5037905;28;20304;-69
2022/05/23 07:30:21;;;;;;;7.57;3.38;;;;;;;;;;5041132;28;20187;-69
2022/05/23 07:32:46;;;;;;;7.30;3.65;;;;;;;;;;5038254;28;20268;-71
2022/05/23 07:35:12;;;;;;;6.28;3.75;;;;;;;;;;5038221;28;20257;-68
2022/05/23 07:37:37;;;;;;;6.63;3.50;;;;;;;;;;5038979;28;20189;-71
2022/05/23 07:40:03;;;;;;;7.50;3.50;;;;;;;;;;5039389;28;20264;-70
2022/05/23 07:42:29;;;;;;;6.80;3.25;;;;;;;;;;5040901;28;20246;-69
2022/05/23 07:44:55;;;;;;;10.30;3.47;;;;;;;;;;5035702;28;20235;-70
2022/05/23 07:47:20;;;;;;;8.48;3.65;;;;;;;;;;5039474;28;20202;-70
2022/05/23 07:49:47;;;;;;;5.95;3.72;;;;;;;;;;5037853;28;20252;-70
2022/05/23 07:52:13;;;;;;;5.00;3.53;;;;;;;;;;5039800;28;20292;-70
2022/05/23 08:02:50;;;;;;;5.95;3.03;;;;;;;;;;5040705;28;20591;-70
2022/05/23 08:05:15;;;;;;;9.45;3.60;;;;;;;;;;5031766;28;20606;-69
2022/05/23 08:07:41;;;;;;;5.95;3.13;;;;;;;;;;5036825;28;20197;-70
2022/05/23 08:10:09;;;;;;;4.72;2.95;;;;;;;;;;5035823;28;20613;-71
2022/05/23 08:12:35;;;;;;;7.05;3.10;;;;;;;;;;5043240;28;20229;-71
2022/05/23 08:15:01;;;;;;;5.30;3.55;;;;;;;;;;5041700;28;20692;-70
2022/05/23 08:17:26;;;;;;;4.88;3.17;;;;;;;;;;5043966;28;20186;-70
2022/05/23 08:19:52;;;;;;;5.65;4.03;;;;;;;;;;5037058;28;20230;-69
2022/05/23 08:22:19;;;;;;;6.20;3.42;;;;;;;;;;5035745;28;20182;-70
2022/05/23 08:24:45;;;;;;;5.40;3.40;;;;;;;;;;5037142;28;20603;-70
2022/05/23 08:27:10;;;;;;;4.68;3.15;;;;;;;;;;5033159;28;20197;-71
2022/05/23 08:29:36;;;;;;;6.53;3.55;;;;;;;;;;5036663;28;20266;-71
2022/05/23 08:32:03;;;;;;;5.82;3.20;;;;;;;;;;5033727;28;20202;-70
2022/05/23 08:34:28;;;;;;;5.50;3.42;;;;;;;;;;5038903;28;20196;-71
2022/05/23 08:36:54;;;;;;;5.50;3.20;;;;;;;;;;5040107;28;20181;-70
2022/05/23 08:39:20;;;;;;;5.85;3.22;;;;;;;;;;5032341;28;20315;-69
2022/05/23 08:41:50;;;;;;;5.47;2.92;;;;;;;;;;5034822;28;20272;-70
2022/05/23 08:44:15;;;;;;;5.90;3.35;;;;;;;;;;5033697;28;20170;-69
2022/05/23 08:46:48;;;;;;;4.82;2.85;;;;;;;;;;5034620;28;20487;-70
2022/05/23 08:49:28;;;;;;;9.52;3.22;;;;;;;;;;5030385;28;20174;-70
2022/05/23 08:52:06;;;;;;;5.22;3.03;;;;;;;;;;5037058;28;20185;-69
2022/05/23 08:54:43;;;;;;;5.07;3.05;;;;;;;;;;5034977;28;20633;-69
2022/05/23 08:57:20;;;;;;;5.90;2.80;;;;;;;;;;5030733;28;20189;-68
2022/05/23 08:59:50;;;;;;;5.43;3.03;;;;;;;;;;5033335;28;20237;-67
2022/05/23 09:02:37;;;;;;;4.70;2.80;;;;;;;;;;5037852;28;20201;-66
2022/05/23 09:05:09;;;;;;;6.45;2.65;;;;;;;;;;5034793;28;20523;-66
2022/05/23 09:07:56;;;;;;;5.43;2.40;;;;;;;;;;5031821;28;20232;-67
2022/05/23 09:10:49;;;;;;;5.03;2.15;;;;;;;;;;5032155;28;20550;-67
2022/05/23 09:13:17;;;;;;;7.82;2.35;;;;;;;;;;5040361;28;20198;-69
2022/05/23 09:15:45;;;;;;;4.68;2.13;;;;;;;;;;5034040;28;20637;-67
2022/05/23 09:18:16;;;;;;;2.55;2.15;;;;;;;;;;5035583;28;20835;-70
2022/05/23 09:20:48;;;;;;;5.10;2.10;;;;;;;;;;5035895;28;20186;-66
2022/05/23 09:23:30;;;;;;;3.60;2.25;;;;;;;;;;5034750;28;20554;-67
2022/05/23 09:25:57;;;;;;;4.35;2.15;;;;;;;;;;5031574;28;20866;-66
2022/05/23 09:28:32;;;;;;;5.85;2.08;;;;;;;;;;5031275;28;20670;-68
2022/05/23 09:31:31;;;;;;;6.95;2.10;;;;;;;;;;5051915;28;20263;-71
2022/05/23 09:33:57;;;;;;;4.68;2.20;;;;;;;;;;5038866;28;20181;-68
2022/05/23 09:36:38;;;;;;;4.50;2.17;;;;;;;;;;5037415;28;20188;-68
2022/05/23 09:39:09;;;;;;;4.55;2.08;;;;;;;;;;5040223;28;20282;-66
2022/05/23 09:50:05;;;;;;;4.93;2.60;;;;;;;;;;5037650;28;20252;-70
2022/05/23 09:52:32;;;;;;;3.03;1.77;;;;;;;;;;5036696;28;20190;-70
2022/05/23 09:55:01;;;;;;;4.60;2.40;;;;;;;;;;5038263;28;20182;-67
2022/05/23 09:57:41;;;;;;;5.15;2.50;;;;;;;;;;5030575;28;20252;-65
2022/05/23 10:00:08;;;;;;;5.03;3.00;;;;;;;;;;5035207;28;20174;-69
2022/05/23 10:02:34;;;;;;;7.20;3.40;;;;;;;;;;5038631;28;20649;-67
2022/05/23 10:04:59;;;;;;;8.65;2.83;;;;;;;;;;5039222;28;20259;-66
2022/05/23 10:07:29;;;;;;;7.40;3.72;;;;;;;;;;5037973;28;20216;-68
2022/05/23 10:10:05;;;;;;;8.68;3.85;;;;;;;;;;5043132;28;20177;-68
2022/05/23 10:12:32;;;;;;;6.63;3.67;;;;;;;;;;5039685;28;20703;-68
2022/05/23 10:15:16;;;;;;;7.30;3.60;;;;;;;;;;5041477;28;20178;-68
2022/05/23 10:17:43;;;;;;;4.32;3.28;;;;;;;;;;5037078;28;20182;-67
2022/05/23 10:20:20;;;;;;;7.20;3.90;;;;;;;;;;5038789;28;20640;-66
2022/05/23 10:23:07;;;;;;;4.78;3.22;;;;;;;;;;5040478;28;20212;-65
2022/05/23 10:25:49;;;;;;;7.10;3.88;;;;;;;;;;5034598;28;20204;-66
2022/05/23 10:28:21;;;;;;;6.32;3.20;;;;;;;;;;5034988;28;20676;-67
2022/05/23 10:31:03;;;;;;;4.68;3.40;;;;;;;;;;5036621;28;20209;-71
2022/05/23 10:33:30;;;;;;;6.93;3.58;;;;;;;;;;5034769;28;20202;-67
2022/05/23 10:36:12;;;;;;;7.38;4.10;;;;;;;;;;5030058;28;20189;-67
2022/05/23 10:44:47;;;;;;;5.72;3.20;;;;;;;;;;5029769;28;20243;-67
2022/05/23 10:47:38;;;;;;;7.75;4.18;;;;;;;;;;5034231;28;20373;-69
2022/05/23 10:50:19;;;;;;;6.80;3.63;;;;;;;;;;5029445;28;20676;-68
2022/05/23 10:53:15;;;;;;;4.93;2.83;;;;;;;;;;5030741;28;20648;-66
2022/05/23 10:55:51;;;;;;;6.45;2.95;;;;;;;;;;5033568;28;20182;-67
2022/05/23 10:58:29;;;;;;;5.32;2.97;;;;;;;;;;5035057;28;20177;-66
2022/05/23 11:01:19;;;;;;;5.68;3.40;;;;;;;;;;5031508;28;20184;-65
2022/05/23 11:04:08;;;;;;;4.35;2.92;;;;;;;;;;5032581;28;20208;-65
2022/05/23 11:06:46;;;;;;;6.15;3.38;;;;;;;;;;5034382;28;21790;-65
2022/05/23 11:09:35;;;;;;;4.00;3.22;;;;;;;;;;5034607;28;20166;-65
2022/05/23 11:12:28;;;;;;;7.00;3.50;;;;;;;;;;5042457;28;20217;-68
2022/05/23 11:15:26;;;;;;;4.38;3.60;;;;;;;;;;5035343;28;20593;-66
2022/05/23 11:18:19;;;;;;;9.15;4.10;;;;;;;;;;5039092;28;20660;-67
2022/05/23 11:20:46;;;;;;;14.88;4.70;;;;;;;;;;5026945;28;20181;-70
2022/05/23 11:23:36;;;;;;;5.43;3.33;;;;;;;;;;5042808;28;20177;-67
2022/05/23 11:26:12;;;;;;;6.20;3.17;;;;;;;;;;5037441;28;20181;-69
2022/05/23 11:34:51;;;;;;;4.30;2.90;;;;;;;;;;5038575;28;20342;-66
2022/05/23 11:40:06;;;;;;;6.50;3.40;;;;;;;;;;5025558;28;20196;-65
2022/05/23 11:43:07;;;;;;;5.82;3.00;;;;;;;;;;5036441;28;20182;-66
2022/05/23 11:46:00;;;;;;;7.30;3.60;;;;;;;;;;5030614;28;20246;-66
2022/05/23 11:48:39;;;;;;;5.28;3.35;;;;;;;;;;5027931;28;20233;-64
2022/05/23 11:51:17;;;;;;;5.00;3.08;;;;;;;;;;5037018;28;20700;-65
2022/05/23 11:54:00;;;;;;;4.57;3.00;;;;;;;;;;5027015;28;20190;-66
2022/05/23 11:56:45;;;;;;;6.20;3.28;;;;;;;;;;5029845;28;20613;-66
2022/05/23 11:59:32;;;;;;;6.88;3.35;;;;;;;;;;5031641;28;20281;-65
2022/05/23 12:02:07;;;;;;;4.25;3.10;;;;;;;;;;5034042;28;20655;-65
2022/05/23 12:04:33;;;;;;;5.28;3.08;;;;;;;;;;5035912;28;20567;-65
2022/05/23 12:06:59;;;;;;;4.93;3.10;;;;;;;;;;5033532;28;20198;-66
2022/05/23 12:09:44;;;;;;;5.03;3.55;;;;;;;;;;5039117;28;20195;-66
2022/05/23 12:12:24;;;;;;;6.47;4.10;;;;;;;;;;5033156;28;20299;-65
2022/05/23 12:14:52;;;;;;;5.03;3.40;;;;;;;;;;5036139;28;20193;-66
2022/05/23 12:17:26;;;;;;;7.30;3.40;;;;;;;;;;5032166;28;20177;-65
2022/05/23 12:19:54;;;;;;;5.93;3.47;;;;;;;;;;5040887;28;20177;-65
2022/05/23 12:22:20;;;;;;;9.00;3.10;;;;;;;;;;5035493;28;20669;-65
2022/05/23 12:24:57;;;;;;;5.47;3.50;;;;;;;;;;5039607;28;20186;-65
2022/05/23 12:27:29;;;;;;;6.57;3.30;;;;;;;;;;5035202;28;20197;-65
2022/05/23 12:30:26;;;;;;;5.10;3.33;;;;;;;;;;5034445;28;20199;-65
2022/05/23 12:32:57;;;;;;;7.30;3.55;;;;;;;;;;5035491;28;20190;-65
2022/05/23 12:35:48;;;;;;;5.38;3.20;;;;;;;;;;5032833;28;20258;-65
2022/05/23 12:38:26;;;;;;;5.40;3.20;;;;;;;;;;5037491;28;20178;-65
2022/05/23 12:41:13;;;;;;;5.53;3.05;;;;;;;;;;5027470;28;20642;-65
2022/05/23 12:44:02;;;;;;;6.13;2.80;;;;;;;;;;5033619;28;20202;-65
2022/05/23 12:47:04;;;;;;;7.20;3.90;;;;;;;;;;5038151;28;20225;-67
2022/05/23 12:49:56;;;;;;;5.80;3.83;;;;;;;;;;5036971;28;20192;-68
2022/05/23 12:52:45;;;;;;;5.00;2.97;;;;;;;;;;5038710;28;20178;-68
2022/05/23 12:55:23;;;;;;;5.63;3.28;;;;;;;;;;5038740;28;20300;-68
2022/05/23 12:57:49;;;;;;;4.90;3.08;;;;;;;;;;5038680;28;20597;-68
2022/05/23 13:00:22;;;;;;;4.75;3.30;;;;;;;;;;5038612;28;20190;-69
2022/05/23 13:02:50;;;;;;;4.30;3.15;;;;;;;;;;5037327;28;20655;-68
2022/05/23 13:05:31;;;;;;;7.38;3.30;;;;;;;;;;5042416;28;20300;-68
2022/05/23 13:08:06;;;;;;;6.28;3.15;;;;;;;;;;5033185;28;20198;-68
2022/05/23 13:10:41;;;;;;;4.60;3.17;;;;;;;;;;5034033;28;20189;-70
2022/05/23 13:13:18;;;;;;;7.32;4.25;;;;;;;;;;5036051;28;20272;-68
2022/05/23 13:15:44;;;;;;;8.25;3.47;;;;;;;;;;5038897;28;20288;-68
2022/05/23 13:23:38;;;;;;;5.78;3.47;;;;;;;;;;5033939;28;20228;-67
2022/05/23 13:26:08;;;;;;;5.47;3.40;;;;;;;;;;5031108;28;20241;-68
2022/05/23 13:28:47;;;;;;;6.20;3.35;;;;;;;;;;5036509;28;20233;-67
2022/05/23 13:31:35;;;;;;;5.30;3.65;;;;;;;;;;5045059;28;20234;-69
2022/05/23 13:34:01;;;;;;;7.90;2.97;;;;;;;;;;5036492;28;20186;-67
2022/05/23 13:36:41;;;;;;;4.00;2.67;;;;;;;;;;5039767;28;20528;-68
2022/05/23 13:39:11;;;;;;;5.28;3.08;;;;;;;;;;5041907;28;20266;-68
2022/05/23 13:41:36;;;;;;;4.00;2.55;;;;;;;;;;5032705;28;20637;-68
2022/05/23 13:44:02;;;;;;;5.78;3.10;;;;;;;;;;5037129;28;20190;-66
2022/05/23 13:46:33;;;;;;;5.10;2.92;;;;;;;;;;5036176;28;20193;-67
2022/05/23 13:49:11;;;;;;;4.50;2.50;;;;;;;;;;5030327;28;20194;-68
2022/05/23 13:51:42;;;;;;;4.18;2.60;;;;;;;;;;5034979;28;20690;-67
2022/05/23 13:54:09;;;;;;;5.25;2.63;;;;;;;;;;5031090;28;20642;-68
2022/05/23 13:56:38;;;;;;;5.88;2.83;;;;;;;;;;5031730;28;20186;-69
2022/05/23 13:59:10;;;;;;;4.63;2.63;;;;;;;;;;5029335;28;20205;-67
2022/05/23 14:02:03;;;;;;;2.90;2.60;;;;;;;;;;5036988;28;20300;-68
2022/05/23 14:04:34;;;;;;;2.95;2.20;;;;;;;;;;5040442;28;20185;-67
2022/05/23 14:07:16;;;;;;;5.45;2.28;;;;;;;;;;5035941;28;20622;-67
2022/05/23 14:09:47;;;;;;;7.82;2.03;;;;;;;;;;5044220;28;20224;-66
2022/05/23 14:12:17;;;;;;;5.30;2.45;;;;;;;;;;5036445;28;20316;-67
2022/05/23 14:14:50;;;;;;;8.93;2.63;;;;;;;;;;5038942;28;20194;-65
2022/05/23 14:17:39;;;;;;;4.45;1.92;;;;;;;;;;5032138;28;20216;-65
2022/05/23 14:20:25;;;;;;;6.03;2.08;;;;;;;;;;5040430;28;20185;-67
2022/05/23 14:23:21;;;;;;;4.55;1.85;;;;;;;;;;5037359;28;20265;-66
2022/05/23 14:25:55;;;;;;;4.40;1.92;;;;;;;;;;5040127;28;20189;-66
2022/05/23 14:28:22;;;;;;;4.30;1.88;;;;;;;;;;5033048;28;20624;-67
2022/05/23 14:30:54;;;;;;;4.55;2.20;;;;;;;;;;5035567;28;20201;-66
2022/05/23 14:33:19;;;;;;;5.07;1.90;;;;;;;;;;5038893;28;20205;-65
2022/05/23 14:36:10;;;;;;;9.25;1.80;;;;;;;;;;5037240;28;20194;-66
2022/05/23 14:38:50;;;;;;;6.75;1.90;;;;;;;;;;5035185;28;20177;-66
2022/05/23 14:41:22;;;;;;;5.15;1.85;;;;;;;;;;5036310;28;20178;-67
2022/05/23 14:44:22;;;;;;;4.50;1.92;;;;;;;;;;5034653;28;20743;-66
2022/05/23 14:47:19;;;;;;;4.82;1.90;;;;;;;;;;5031176;28;20194;-66
2022/05/23 14:50:05;;;;;;;8.35;2.03;;;;;;;;;;5035098;28;20260;-65
2022/05/23 14:52:44;;;;;;;4.45;1.80;;;;;;;;;;5036379;28;20221;-67
2022/05/23 14:55:19;;;;;;;5.60;1.80;;;;;;;;;;5042246;28;20631;-66
2022/05/23 15:00:48;;;;;;;7.03;2.50;;;;;;;;;;5036394;28;20243;-65
2022/05/23 15:03:19;;;;;;;5.07;1.70;;;;;;;;;;5045056;28;20601;-65
2022/05/23 15:05:44;;;;;;;5.03;1.80;;;;;;;;;;5045128;28;20248;-65
2022/05/23 15:08:10;;;;;;;6.70;2.33;;;;;;;;;;5031996;28;20305;-66
2022/05/23 15:10:37;;;;;;;7.50;1.92;;;;;;;;;;5030883;28;20186;-66
2022/05/23 15:13:04;;;;;;;5.10;2.13;;;;;;;;;;5036247;28;20182;-65
2022/05/23 15:15:30;;;;;;;5.10;1.92;;;;;;;;;;5032251;28;20178;-67
2022/05/23 15:17:55;;;;;;;3.95;1.70;;;;;;;;;;5033198;28;20189;-65
2022/05/23 15:20:22;;;;;;;4.82;1.60;;;;;;;;;;5038277;28;20230;-65
2022/05/23 15:22:47;;;;;;;5.93;2.58;;;;;;;;;;5038090;28;20174;-65
2022/05/23 15:25:13;;;;;;;4.63;1.90;;;;;;;;;;5040743;28;20196;-65
2022/05/23 15:27:40;;;;;;;4.47;2.13;;;;;;;;;;5028398;28;20198;-65
2022/05/23 15:30:11;;;;;;;4.53;1.73;;;;;;;;;;5040405;28;20227;-65
2022/05/23 15:32:38;;;;;;;5.13;1.88;;;;;;;;;;5040029;28;20213;-65
2022/05/23 15:35:06;;;;;;;3.33;2.05;;;;;;;;;;5036079;28;20542;-67
2022/05/23 15:37:32;;;;;;;5.00;2.10;;;;;;;;;;5035879;28;20189;-67
2022/05/23 15:39:58;;;;;;;3.40;1.80;;;;;;;;;;5038688;28;20185;-65
2022/05/23 15:42:26;;;;;;;6.07;2.10;;;;;;;;;;5038110;28;20553;-65
2022/05/23 15:44:53;;;;;;;3.78;2.35;;;;;;;;;;5037388;28;20178;-65
2022/05/23 15:47:24;;;;;;;8.35;2.38;;;;;;;;;;5032407;28;20267;-64
2022/05/23 15:49:49;;;;;;;3.97;2.30;;;;;;;;;;5034098;28;20181;-66
2022/05/23 15:52:16;;;;;;;6.03;3.00;;;;;;;;;;5029649;28;20190;-67
2022/05/23 15:54:42;;;;;;;7.10;2.40;;;;;;;;;;5030889;28;20186;-64
2022/05/23 15:57:10;;;;;;;5.20;2.58;;;;;;;;;;5038654;28;20380;-65
2022/05/23 15:59:37;;;;;;;5.72;3.47;;;;;;;;;;5030838;28;20186;-65
2022/05/23 16:02:03;;;;;;;6.38;2.95;;;;;;;;;;5035927;28;20599;-65
2022/05/23 16:04:28;;;;;;;7.43;3.00;;;;;;;;;;5036288;28;20190;-64
2022/05/23 16:06:54;;;;;;;7.03;3.13;;;;;;;;;;5036891;28;20197;-64
2022/05/23 16:09:19;;;;;;;6.68;2.72;;;;;;;;;;5038060;28;20671;-64
2022/05/23 16:11:48;;;;;;;5.00;2.85;;;;;;;;;;5042688;28;20221;-64
2022/05/23 16:14:15;;;;;;;7.95;2.83;;;;;;;;;;5040333;28;20513;-64